createdAt,value
2023-06-17T00:01:49.093Z,99818.91
2023-06-17T00:04:51.551Z,99825.88
2023-06-17T00:07:54.236Z,99817.31
2023-06-17T00:10:56.634Z,99824.22
2023-06-17T00:14:01.747Z,99806.50
2023-06-17T00:17:04.518Z,99809.72
2023-06-17T00:20:12.352Z,99805.69
2023-06-17T00:23:14.916Z,99813.38
2023-06-17T00:26:17.384Z,99815.31
2023-06-17T00:29:19.877Z,99813.72
2023-06-17T00:32:23.173Z,99812.50
2023-06-17T00:35:25.833Z,99805.88
2023-06-17T00:38:28.493Z,99809.03
2023-06-17T00:41:30.868Z,99812.91
2023-06-17T00:44:33.250Z,99811.84
2023-06-17T00:47:36.084Z,99809.22
2023-06-17T00:50:38.825Z,99804.53
2023-06-17T00:53:41.289Z,99807.25
2023-06-17T00:56:45.221Z,99806.28
2023-06-17T00:59:47.608Z,99799.97
2023-06-17T01:02:50.324Z,99799.97
2023-06-17T01:05:57.384Z,99803.81
2023-06-17T01:09:04.026Z,99807.00
2023-06-17T01:12:08.780Z,99794.44
2023-06-17T01:15:14.663Z,99795.66
2023-06-17T01:18:21.136Z,99812.19
2023-06-17T01:21:23.686Z,99804.28
2023-06-17T01:24:31.674Z,99796.72
2023-06-17T01:27:34.629Z,99804.44
2023-06-17T01:30:37.014Z,99786.75
2023-06-17T01:33:42.834Z,99800.72
2023-06-17T01:36:46.564Z,99797.84
2023-06-17T01:39:51.533Z,99793.19
2023-06-17T01:42:54.525Z,99794.72
2023-06-17T01:45:58.840Z,99800.66
2023-06-17T01:49:01.572Z,99801.66
2023-06-17T01:52:05.041Z,99800.22
2023-06-17T01:55:07.853Z,99794.69
2023-06-17T01:58:10.662Z,99797.41
2023-06-17T02:01:13.094Z,99794.84
2023-06-17T02:04:15.483Z,99785.69
2023-06-17T02:07:18.840Z,99801.28
2023-06-17T02:10:21.547Z,99796.09
2023-06-17T02:13:24.474Z,99790.13
2023-06-17T02:16:27.050Z,99788.91
2023-06-17T02:19:33.204Z,99784.22
2023-06-17T02:22:35.813Z,99793.41
2023-06-17T02:25:41.094Z,99792.19
2023-06-17T02:28:44.560Z,99791.91
2023-06-17T02:31:47.552Z,99802.38
2023-06-17T02:34:50.653Z,99800.16
2023-06-17T02:37:54.013Z,99799.72
2023-06-17T02:40:56.676Z,99804.03
2023-06-17T02:43:59.162Z,99790.91
2023-06-17T02:47:02.535Z,99799.66
2023-06-17T02:50:07.487Z,99804.44
2023-06-17T02:53:11.726Z,99803.81
2023-06-17T02:56:14.803Z,99798.06
2023-06-17T02:59:19.201Z,99804.44
2023-06-17T03:02:23.944Z,99812.53
2023-06-17T03:05:26.429Z,99818.09
2023-06-17T03:08:37.790Z,99810.84
2023-06-17T03:11:41.125Z,99811.47
2023-06-17T03:14:43.623Z,99810.53
2023-06-17T03:17:51.386Z,99802.78
2023-06-17T03:20:57.415Z,99805.97
2023-06-17T03:24:02.672Z,99808.41
2023-06-17T03:27:07.427Z,99798.78
2023-06-17T03:30:10.904Z,99813.38
2023-06-17T03:33:14.683Z,99810.63
2023-06-17T03:36:19.518Z,99816.97
2023-06-17T03:39:22.584Z,99814.00
2023-06-17T03:42:25.089Z,99807.34
2023-06-17T03:45:31.662Z,99813.81
2023-06-17T03:48:36.072Z,99818.31
2023-06-17T03:51:39.352Z,99806.56
2023-06-17T03:54:41.906Z,99814.59
2023-06-17T03:57:44.791Z,99817.03
2023-06-17T04:00:49.060Z,99816.97
2023-06-17T04:03:52.444Z,99815.00
2023-06-17T04:06:55.809Z,99817.63
2023-06-17T04:10:06.410Z,99823.84
2023-06-17T04:13:09.760Z,99807.56
2023-06-17T04:16:16.282Z,99815.63
2023-06-17T04:19:18.879Z,99807.66
2023-06-17T04:22:21.851Z,99816.41
2023-06-17T04:25:25.032Z,99810.47
2023-06-17T04:28:33.992Z,99820.25
2023-06-17T04:31:41.275Z,99820.63
2023-06-17T04:34:49.199Z,99816.56
2023-06-17T04:37:55.405Z,99806.72
2023-06-17T04:40:58.511Z,99812.19
2023-06-17T04:44:02.382Z,99814.66
2023-06-17T04:47:11.127Z,99818.94
2023-06-17T04:50:18.769Z,99825.09
2023-06-17T04:53:22.152Z,99824.03
2023-06-17T04:56:28.021Z,99825.06
2023-06-17T04:59:30.773Z,99825.97
2023-06-17T05:02:36.129Z,99827.63
2023-06-17T05:05:39.604Z,99820.72
2023-06-17T05:08:42.455Z,99831.72
2023-06-17T05:11:46.351Z,99838.81
2023-06-17T05:14:48.971Z,99836.38
2023-06-17T05:17:51.571Z,99841.53
2023-06-17T05:20:54.731Z,99834.91
2023-06-17T05:23:57.944Z,99846.94
2023-06-17T05:27:01.165Z,99845.66
2023-06-17T05:30:04.906Z,99840.28
2023-06-17T05:33:07.774Z,99857.38
2023-06-17T05:36:10.564Z,99851.78
2023-06-17T05:39:13.358Z,99853.16
2023-06-17T05:42:16.513Z,99854.16
2023-06-17T05:45:20.863Z,99849.31
2023-06-17T05:48:26.446Z,99852.53
2023-06-17T05:51:30.011Z,99853.03
2023-06-17T05:54:34.541Z,99864.47
2023-06-17T05:57:37.845Z,99860.84
2023-06-17T06:00:40.865Z,99871.16
2023-06-17T06:03:43.311Z,99859.53
2023-06-17T06:06:45.778Z,99862.91
2023-06-17T06:09:48.343Z,99864.47
2023-06-17T06:12:51.695Z,99854.75
2023-06-17T06:15:54.319Z,99861.06
2023-06-17T06:18:56.812Z,99867.97
2023-06-17T06:21:59.217Z,99856.28
2023-06-17T06:25:01.713Z,99868.91
2023-06-17T06:28:05.136Z,99860.19
2023-06-17T06:31:07.893Z,99862.34
2023-06-17T06:34:10.910Z,99859.63
2023-06-17T06:37:13.580Z,99848.13
2023-06-17T06:40:16.215Z,99857.44
2023-06-17T06:43:18.804Z,99858.84
2023-06-17T06:46:32.822Z,99856.25
2023-06-17T06:49:35.957Z,99866.84
2023-06-17T06:52:38.683Z,99863.06
2023-06-17T06:55:42.531Z,99866.91
2023-06-17T06:58:45.075Z,99872.53
2023-06-17T07:01:47.607Z,99875.81
2023-06-17T07:04:50.392Z,99888.31
2023-06-17T07:07:59.326Z,99889.31
2023-06-17T07:11:03.137Z,99881.13
2023-06-17T07:14:05.869Z,99883.03
2023-06-17T07:17:08.978Z,99869.22
2023-06-17T07:20:11.920Z,99875.63
2023-06-17T07:23:15.321Z,99873.13
2023-06-17T07:26:17.884Z,99873.72
2023-06-17T07:29:21.660Z,99874.41
2023-06-17T07:32:24.186Z,99872.63
2023-06-17T07:35:26.887Z,99874.66
2023-06-17T07:38:30.147Z,99881.72
2023-06-17T07:41:32.700Z,99870.53
2023-06-17T07:44:35.162Z,99876.28
2023-06-17T07:47:38.352Z,99870.34
2023-06-17T07:50:40.836Z,99879.53
2023-06-17T07:53:43.272Z,99867.81
2023-06-17T07:56:46.352Z,99865.66
2023-06-17T07:59:48.784Z,99874.41
2023-06-17T08:02:51.295Z,99878.31
2023-06-17T08:05:53.777Z,99882.75
2023-06-17T08:08:56.456Z,99877.22
2023-06-17T08:11:59.078Z,99876.41
2023-06-17T08:15:01.503Z,99869.91
2023-06-17T08:18:04.173Z,99861.47
2023-06-17T08:21:06.592Z,99871.38
2023-06-17T08:24:22.155Z,99870.19
2023-06-17T08:27:26.008Z,99874.28
2023-06-17T08:30:28.475Z,99872.91
2023-06-17T08:33:30.992Z,99873.72
2023-06-17T08:36:34.206Z,99877.44
2023-06-17T08:39:41.107Z,99878.91
2023-06-17T08:42:43.757Z,99881.78
2023-06-17T08:45:49.714Z,99878.78
2023-06-17T08:48:53.808Z,99885.06
2023-06-17T08:51:57.300Z,99877.94
2023-06-17T08:55:00.723Z,99876.72
2023-06-17T08:58:04.259Z,99863.78
2023-06-17T09:01:07.573Z,99866.53
2023-06-17T09:04:10.388Z,99868.13
2023-06-17T09:07:13.937Z,99875.59
2023-06-17T09:10:17.088Z,99870.38
2023-06-17T09:13:20.090Z,99878.31
2023-06-17T09:16:29.818Z,99875.75
2023-06-17T09:19:33.098Z,99885.00
2023-06-17T09:22:38.471Z,99881.63
2023-06-17T09:25:42.116Z,99884.53
2023-06-17T09:28:45.694Z,99879.22
2023-06-17T09:31:55.032Z,99881.69
2023-06-17T09:34:59.132Z,99873.69
2023-06-17T09:38:03.981Z,99865.81
2023-06-17T09:41:07.905Z,99872.19
2023-06-17T09:44:11.508Z,99872.38
2023-06-17T09:47:14.760Z,99861.50
2023-06-17T09:50:17.492Z,99866.63
2023-06-17T09:53:20.446Z,99870.44
2023-06-17T09:56:24.298Z,99868.16
2023-06-17T09:59:27.806Z,99871.34
2023-06-17T10:02:30.393Z,99877.38
2023-06-17T10:05:32.828Z,99864.81
2023-06-17T10:08:40.888Z,99865.19
2023-06-17T10:11:49.626Z,99866.34
2023-06-17T10:14:52.459Z,99872.00
2023-06-17T10:17:57.105Z,99868.09
2023-06-17T10:21:01.726Z,99871.28
2023-06-17T10:24:05.342Z,99861.63
2023-06-17T10:27:08.374Z,99864.88
2023-06-17T10:30:30.080Z,99867.50
2023-06-17T10:33:32.635Z,99862.56
2023-06-17T10:36:38.653Z,99859.84
2023-06-17T10:39:53.333Z,99866.13
2023-06-17T10:43:02.389Z,99855.78
2023-06-17T10:46:04.882Z,99858.94
2023-06-17T10:49:15.083Z,99852.16
2023-06-17T10:52:18.814Z,99863.66
2023-06-17T10:55:21.252Z,99858.84
2023-06-17T10:58:30.045Z,99872.34
2023-06-17T11:01:32.505Z,99860.84
2023-06-17T11:04:42.408Z,99858.09
2023-06-17T11:07:44.855Z,99864.91
2023-06-17T11:10:47.323Z,99872.19
2023-06-17T11:13:52.016Z,99870.72
2023-06-17T11:16:54.731Z,99867.81
2023-06-17T11:19:57.303Z,99868.34
2023-06-17T11:22:59.859Z,99871.75
2023-06-17T11:26:03.125Z,99871.16
2023-06-17T11:29:06.261Z,99868.16
2023-06-17T11:32:09.348Z,99871.47
2023-06-17T11:35:12.924Z,99875.00
2023-06-17T11:38:19.964Z,99871.56
2023-06-17T11:41:26.513Z,99873.69
2023-06-17T11:44:32.821Z,99865.09
2023-06-17T11:47:36.962Z,99872.88
2023-06-17T11:50:39.425Z,99871.59
2023-06-17T11:53:45.564Z,99862.38
2023-06-17T11:56:50.638Z,99865.06
2023-06-17T11:59:58.722Z,99870.06
2023-06-17T12:03:01.285Z,99853.72
2023-06-17T12:06:04.249Z,99857.06
2023-06-17T12:09:07.707Z,99842.56
2023-06-17T12:12:13.049Z,99856.53
2023-06-17T12:15:17.520Z,99854.91
2023-06-17T12:18:29.677Z,99849.66
2023-06-17T12:21:32.253Z,99854.88
2023-06-17T12:24:34.822Z,99865.66
2023-06-17T12:27:37.308Z,99857.41
2023-06-17T12:30:40.341Z,99852.59
2023-06-17T12:33:43.293Z,99855.03
2023-06-17T12:36:45.796Z,99860.59
2023-06-17T12:39:49.675Z,99859.41
2023-06-17T12:42:52.098Z,99859.03
2023-06-17T12:45:55.627Z,99872.41
2023-06-17T12:48:58.062Z,99867.69
2023-06-17T12:52:00.719Z,99870.03
2023-06-17T12:55:05.866Z,99871.09
2023-06-17T12:58:08.828Z,99869.91
2023-06-17T13:01:12.099Z,99863.41
2023-06-17T13:04:14.649Z,99864.34
2023-06-17T13:07:18.011Z,99861.25
2023-06-17T13:10:20.760Z,99859.72
2023-06-17T13:13:23.956Z,99868.97
2023-06-17T13:16:27.178Z,99869.47
2023-06-17T13:19:29.969Z,99860.31
2023-06-17T13:22:35.184Z,99856.09
2023-06-17T13:25:37.615Z,99867.28
2023-06-17T13:28:40.070Z,99862.78
2023-06-17T13:31:42.577Z,99873.44
2023-06-17T13:34:45.272Z,99879.78
2023-06-17T13:37:48.688Z,99863.09
2023-06-17T13:40:51.183Z,99860.34
2023-06-17T13:43:53.836Z,99864.16
2023-06-17T13:46:57.340Z,99855.16
2023-06-17T13:49:59.991Z,99866.16
2023-06-17T13:53:03.180Z,99856.28
2023-06-17T13:56:06.058Z,99869.97
2023-06-17T13:59:09.230Z,99861.34
2023-06-17T14:02:11.762Z,99855.94
2023-06-17T14:05:14.258Z,99853.97
2023-06-17T14:08:16.810Z,99861.03
2023-06-17T14:11:19.326Z,99855.47
2023-06-17T14:14:21.766Z,99861.16
2023-06-17T14:17:25.150Z,99848.88
2023-06-17T14:20:27.811Z,99863.00
2023-06-17T14:23:30.259Z,99867.84
2023-06-17T14:26:35.127Z,99866.16
2023-06-17T14:29:40.474Z,99872.50
2023-06-17T14:32:45.010Z,99874.66
2023-06-17T14:35:47.462Z,99868.91
2023-06-17T14:38:50.559Z,99873.03
2023-06-17T14:41:53.255Z,99861.03
2023-06-17T14:44:55.759Z,99866.91
2023-06-17T14:47:58.343Z,99865.34
2023-06-17T14:51:01.427Z,99862.69
2023-06-17T14:54:04.030Z,99863.50
2023-06-17T14:57:06.929Z,99860.03
2023-06-17T15:00:10.450Z,99866.78
2023-06-17T15:03:13.293Z,99864.16
2023-06-17T15:06:16.147Z,99875.81
2023-06-17T15:09:28.118Z,99879.13
2023-06-17T15:12:31.063Z,99879.63
2023-06-17T15:15:33.510Z,99881.38
2023-06-17T15:18:37.385Z,99883.72
2023-06-17T15:21:39.933Z,99892.63
2023-06-17T15:24:42.863Z,99884.31
2023-06-17T15:27:45.366Z,99896.09
2023-06-17T15:30:47.918Z,99895.00
2023-06-17T15:33:50.373Z,99898.59
2023-06-17T15:36:52.825Z,99891.06
2023-06-17T15:39:55.199Z,99886.25
2023-06-17T15:42:57.747Z,99902.78
2023-06-17T15:46:00.284Z,99908.72
2023-06-17T15:49:02.732Z,99902.81
2023-06-17T15:52:06.506Z,99912.25
2023-06-17T15:55:09.122Z,99906.47
2023-06-17T15:58:11.601Z,99904.56
2023-06-17T16:01:14.912Z,99903.75
2023-06-17T16:04:39.838Z,99912.03
2023-06-17T16:07:42.282Z,99911.81
2023-06-17T16:10:44.703Z,99914.50
2023-06-17T16:13:47.198Z,99923.81
2023-06-17T16:16:49.636Z,99916.78
2023-06-17T16:19:52.148Z,99919.09
2023-06-17T16:22:54.664Z,99923.47
2023-06-17T16:25:57.081Z,99928.28
2023-06-17T16:28:59.501Z,99941.34
2023-06-17T16:32:01.945Z,99939.84
2023-06-17T16:35:04.572Z,99934.66
2023-06-17T16:38:06.954Z,99936.75
2023-06-17T16:41:09.329Z,99946.53
2023-06-17T16:44:11.776Z,99952.56
2023-06-17T16:47:14.235Z,99945.47
2023-06-17T16:50:16.630Z,99945.53
2023-06-17T16:53:19.576Z,99941.63
2023-06-17T16:56:22.143Z,99946.72
2023-06-17T16:59:25.046Z,99951.09
2023-06-17T17:02:27.747Z,99950.31
2023-06-17T17:05:30.606Z,99960.94
2023-06-17T17:08:33.447Z,99964.06
2023-06-17T17:11:36.259Z,99970.75
2023-06-17T17:14:38.795Z,99969.56
2023-06-17T17:17:41.328Z,99975.84
2023-06-17T17:20:43.836Z,99979.41
2023-06-17T17:23:46.416Z,99979.41
2023-06-17T17:26:48.812Z,99985.69
2023-06-17T17:29:51.645Z,99987.66
2023-06-17T17:32:55.865Z,99999.06
2023-06-17T17:35:58.404Z,99994.75
2023-06-17T17:39:01.090Z,100004.53
2023-06-17T17:42:03.811Z,100005.22
2023-06-17T17:45:06.936Z,100007.19
2023-06-17T17:48:10.796Z,100003.59
2023-06-17T17:51:13.248Z,100023.63
2023-06-17T17:54:15.765Z,100020.03
2023-06-17T17:57:18.280Z,100026.56
2023-06-17T18:00:21.466Z,100029.66
2023-06-17T18:03:24.515Z,100024.97
2023-06-17T18:06:30.438Z,100033.25
2023-06-17T18:09:33.082Z,100037.19
2023-06-17T18:12:35.966Z,100036.78
2023-06-17T18:15:38.412Z,100041.81
2023-06-17T18:18:40.911Z,100044.84
2023-06-17T18:21:43.540Z,100048.75
2023-06-17T18:24:46.251Z,100053.78
2023-06-17T18:27:48.712Z,100050.16
2023-06-17T18:30:51.160Z,100066.25
2023-06-17T18:33:54.346Z,100057.22
2023-06-17T18:36:56.905Z,100056.78
2023-06-17T18:39:59.505Z,100063.09
2023-06-17T18:43:01.974Z,100065.41
2023-06-17T18:46:05.427Z,100063.44
2023-06-17T18:49:10.955Z,100072.16
2023-06-17T18:52:13.393Z,100061.09
2023-06-17T18:55:15.922Z,100071.66
2023-06-17T18:58:18.355Z,100071.81
2023-06-17T19:01:20.885Z,100077.28
2023-06-17T19:04:23.362Z,100075.59
2023-06-17T19:07:25.857Z,100076.31
2023-06-17T19:10:28.229Z,100079.75
2023-06-17T19:13:30.713Z,100084.59
2023-06-17T19:16:33.159Z,100069.69
2023-06-17T19:19:35.779Z,100084.78
2023-06-17T19:22:39.465Z,100076.88
2023-06-17T19:25:41.899Z,100083.53
2023-06-17T19:28:44.447Z,100079.69
2023-06-17T19:31:46.906Z,100066.09
2023-06-17T19:34:49.333Z,100073.91
2023-06-17T19:37:52.167Z,100073.97
2023-06-17T19:40:54.584Z,100082.28
2023-06-17T19:43:57.941Z,100077.22
2023-06-17T19:47:01.055Z,100077.38
2023-06-17T19:50:03.609Z,100083.91
2023-06-17T19:53:06.090Z,100080.78
2023-06-17T19:56:08.511Z,100088.28
2023-06-17T19:59:10.937Z,100080.97
2023-06-17T20:02:15.232Z,100072.50
2023-06-17T20:05:19.482Z,100073.13
2023-06-17T20:08:21.937Z,100084.47
2023-06-17T20:11:26.892Z,100077.78
2023-06-17T20:14:29.328Z,100076.56
2023-06-17T20:17:31.939Z,100077.78
2023-06-17T20:20:34.454Z,100077.88
2023-06-17T20:23:37.769Z,100074.50
2023-06-17T20:26:40.220Z,100076.66
2023-06-17T20:29:42.647Z,100066.69
2023-06-17T20:32:45.126Z,100066.19
2023-06-17T20:35:48.892Z,100071.59
2023-06-17T20:38:51.486Z,100066.91
2023-06-17T20:41:53.900Z,100069.50
2023-06-17T20:44:56.753Z,100076.09
2023-06-17T20:47:59.269Z,100070.06
2023-06-17T20:51:04.400Z,100070.88
2023-06-17T20:54:06.925Z,100069.78
2023-06-17T20:57:09.371Z,100082.25
2023-06-17T21:00:12.533Z,100074.28
2023-06-17T21:03:15.067Z,100069.81
2023-06-17T21:06:17.617Z,100060.78
2023-06-17T21:09:20.045Z,100060.34
2023-06-17T21:12:22.481Z,100062.22
2023-06-17T21:15:24.930Z,100070.72
2023-06-17T21:18:28.609Z,100076.91
2023-06-17T21:21:31.127Z,100060.91
2023-06-17T21:24:33.643Z,100065.00
2023-06-17T21:27:36.123Z,100059.44
2023-06-17T21:30:38.584Z,100050.88
2023-06-17T21:33:41.267Z,100055.47
2023-06-17T21:36:43.714Z,100063.78
2023-06-17T21:39:46.207Z,100058.28
2023-06-17T21:42:48.655Z,100074.00
2023-06-17T21:45:53.047Z,100079.19
2023-06-17T21:48:56.526Z,100075.72
2023-06-17T21:51:58.929Z,100062.41
2023-06-17T21:55:01.492Z,100066.53
2023-06-17T21:58:04.001Z,100063.09
2023-06-17T22:01:06.511Z,100063.53
2023-06-17T22:04:09.247Z,100061.78
2023-06-17T22:07:11.706Z,100065.81
2023-06-17T22:10:14.340Z,100067.75
2023-06-17T22:13:16.719Z,100066.16
2023-06-17T22:16:19.391Z,100055.25
2023-06-17T22:19:21.912Z,100053.75
2023-06-17T22:22:24.359Z,100054.84
2023-06-17T22:25:26.773Z,100057.41
2023-06-17T22:28:29.278Z,100051.47
2023-06-17T22:31:31.770Z,100056.88
2023-06-17T22:34:36.357Z,100054.13
2023-06-17T22:37:38.832Z,100055.34
2023-06-17T22:40:41.239Z,100063.19
2023-06-17T22:43:43.621Z,100063.38
2023-06-17T22:46:46.055Z,100069.13
2023-06-17T22:49:48.510Z,100070.47
2023-06-17T22:52:50.936Z,100063.38
2023-06-17T22:55:53.362Z,100071.34
2023-06-17T22:58:55.937Z,100066.84
2023-06-17T23:01:59.973Z,100066.25
2023-06-17T23:05:05.348Z,100050.44
2023-06-17T23:08:07.759Z,100060.75
2023-06-17T23:11:11.467Z,100053.91
2023-06-17T23:14:13.873Z,100045.31
2023-06-17T23:17:16.301Z,100046.41
2023-06-17T23:20:18.748Z,100052.06
2023-06-17T23:23:22.009Z,100058.22
2023-06-17T23:26:25.733Z,100059.06
2023-06-17T23:29:28.207Z,100049.56
2023-06-17T23:32:30.672Z,100056.06
2023-06-17T23:35:33.241Z,100048.69
2023-06-17T23:38:36.496Z,100051.06
2023-06-17T23:41:38.997Z,100058.47
2023-06-17T23:44:41.561Z,100057.25
2023-06-17T23:47:44.080Z,100057.84
2023-06-17T23:50:46.614Z,100056.97
2023-06-17T23:53:49.024Z,100060.00
2023-06-17T23:56:51.601Z,100058.84
2023-06-17T23:59:54.004Z,100062.00
